createdAt,value
2022-10-29T00:02:11.689Z,101122.63
2022-10-29T00:08:57.027Z,101124.13
2022-10-29T00:15:46.604Z,101106.97
2022-10-29T00:22:31.959Z,101115.91
2022-10-29T00:29:17.718Z,101093.28
2022-10-29T00:36:08.540Z,101102.34
2022-10-29T00:42:53.902Z,101108.84
2022-10-29T00:49:40.140Z,101113.94
2022-10-29T00:56:30.639Z,101114.88
2022-10-29T01:03:16.232Z,101096.63
2022-10-29T01:10:04.452Z,101108.06
2022-10-29T01:17:02.173Z,101100.63
2022-10-29T01:24:38.803Z,101103.19
2022-10-29T01:31:37.263Z,101088.91
2022-10-29T01:38:31.367Z,101041.91
2022-10-29T01:45:24.106Z,101094.25
2022-10-29T01:52:17.127Z,101023.88
2022-10-29T01:59:06.135Z,101032.47
2022-10-29T02:06:04.595Z,101076.81
2022-10-29T02:12:55.815Z,101068.69
2022-10-29T02:19:41.501Z,101067.16
2022-10-29T02:26:26.984Z,101054.38
2022-10-29T02:33:14.899Z,101048.47
2022-10-29T02:40:00.321Z,101083.88
2022-10-29T03:00:37.573Z,101074.94
2022-10-29T03:07:22.999Z,101059.50
2022-10-29T03:14:08.344Z,101061.25
2022-10-29T03:20:56.441Z,101066.13
2022-10-29T03:27:44.701Z,101068.00
2022-10-29T03:34:30.127Z,101060.69
2022-10-29T03:41:18.120Z,101037.38
2022-10-29T03:48:03.480Z,101061.16
2022-10-29T03:54:48.833Z,101049.19
2022-10-29T04:01:37.074Z,101081.56
2022-10-29T04:08:22.581Z,101082.28
2022-10-29T04:15:09.903Z,101078.31
2022-10-29T04:24:12.214Z,101086.94
2022-10-29T04:29:03.317Z,101077.28
2022-10-29T04:35:55.470Z,101077.28
2022-10-29T04:42:43.927Z,101041.53
2022-10-29T04:49:29.306Z,101056.97
2022-10-29T04:56:14.773Z,101070.09
2022-10-29T05:03:02.769Z,101049.19
2022-10-29T05:09:48.345Z,101048.72
2022-10-29T05:16:33.720Z,101048.25
2022-10-29T05:23:21.714Z,101021.78
2022-10-29T05:30:08.488Z,100986.25
2022-10-29T05:36:54.209Z,101053.47
2022-10-29T05:43:42.168Z,101038.97
2022-10-29T05:50:27.825Z,101054.06
2022-10-29T05:57:13.401Z,101056.84
2022-10-29T06:04:02.075Z,101061.75
2022-10-29T06:10:47.511Z,101055.81
2022-10-29T06:17:32.979Z,101053.72
2022-10-29T06:24:20.907Z,101062.06
2022-10-29T06:31:08.269Z,101076.09
2022-10-29T06:37:54.011Z,101052.31
2022-10-29T06:44:42.307Z,101067.16
2022-10-29T06:51:27.727Z,101058.44
2022-10-29T06:58:16.701Z,101049.28
2022-10-29T07:05:04.641Z,101062.03
2022-10-29T07:11:49.983Z,101073.31
2022-10-29T07:18:35.323Z,101087.13
2022-10-29T07:25:23.700Z,101088.50
2022-10-29T07:32:09.425Z,101085.59
2022-10-29T07:38:54.879Z,101069.09
2022-10-29T07:45:43.038Z,101090.50
2022-10-29T07:52:28.462Z,101105.84
2022-10-29T07:59:15.104Z,101102.56
2022-10-29T08:06:03.235Z,101087.50
2022-10-29T08:12:53.344Z,101100.59
2022-10-29T08:19:39.016Z,101098.66
2022-10-29T08:26:26.939Z,101091.84
2022-10-29T08:33:13.587Z,101094.38
2022-10-29T08:39:58.967Z,101097.88
2022-10-29T08:46:50.648Z,101096.72
2022-10-29T08:53:45.447Z,101101.00
2022-10-29T09:00:42.029Z,101085.97
2022-10-29T09:08:01.212Z,101100.97
2022-10-29T09:15:20.656Z,101092.72
2022-10-29T09:22:18.096Z,101084.38
2022-10-29T09:29:27.532Z,101082.84
2022-10-29T09:36:19.235Z,101055.50
2022-10-29T09:43:16.551Z,101057.81
2022-10-29T09:50:17.456Z,101047.81
2022-10-29T09:57:05.942Z,101046.31
2022-10-29T10:03:58.341Z,101058.19
2022-10-29T10:10:57.550Z,101042.38
2022-10-29T10:18:00.788Z,101028.59
2022-10-29T10:24:46.633Z,101018.59
2022-10-29T10:31:34.816Z,101007.59
2022-10-29T10:38:23.427Z,101001.00
2022-10-29T10:45:19.319Z,100997.56
2022-10-29T10:52:18.345Z,101001.84
2022-10-29T10:59:23.322Z,100997.66
2022-10-29T11:06:17.003Z,100989.25
2022-10-29T11:13:09.609Z,100981.72
2022-10-29T11:19:58.660Z,100964.59
2022-10-29T11:26:51.269Z,100949.19
2022-10-29T11:33:50.969Z,100938.66
2022-10-29T11:40:44.644Z,100954.75
2022-10-29T11:48:00.503Z,100935.00
2022-10-29T11:55:06.703Z,100921.50
2022-10-29T12:02:06.180Z,100916.06
2022-10-29T12:09:10.106Z,100912.72
2022-10-29T12:16:17.811Z,100892.63
2022-10-29T12:23:15.613Z,100903.91
2022-10-29T12:30:06.264Z,100899.16
2022-10-29T12:37:06.018Z,100893.47
2022-10-29T12:43:51.819Z,100865.75
2022-10-29T12:50:52.881Z,100890.31
2022-10-29T12:57:41.058Z,100883.13
2022-10-29T13:04:32.010Z,100876.28
2022-10-29T13:11:26.948Z,100876.66
2022-10-29T13:18:26.507Z,100796.44
2022-10-29T13:25:53.815Z,100859.94
2022-10-29T13:32:41.507Z,100859.66
2022-10-29T13:39:29.473Z,100836.81
2022-10-29T13:46:45.522Z,100826.41
2022-10-29T13:53:43.826Z,100836.53
2022-10-29T14:00:33.815Z,100841.09
2022-10-29T14:07:26.804Z,100830.69
2022-10-29T14:14:28.741Z,100814.72
2022-10-29T14:21:24.511Z,100833.59
2022-10-29T14:28:30.087Z,100841.16
2022-10-29T14:35:19.362Z,100829.53
2022-10-29T14:42:08.812Z,100825.09
2022-10-29T14:49:04.474Z,100835.91
2022-10-29T14:55:52.324Z,100771.28
2022-10-29T15:02:45.939Z,100836.13
2022-10-29T15:09:31.809Z,100824.03
2022-10-29T15:16:23.086Z,100826.78
2022-10-29T15:23:22.935Z,100830.69
2022-10-29T15:30:10.198Z,100820.47
2022-10-29T15:36:58.558Z,100832.47
2022-10-29T15:43:56.664Z,100843.66
2022-10-29T15:50:45.273Z,100817.16
2022-10-29T15:57:31.552Z,100820.38
2022-10-29T16:04:19.513Z,100805.44
2022-10-29T16:11:08.238Z,100825.91
2022-10-29T16:17:53.816Z,100817.47
2022-10-29T16:24:42.501Z,100808.94
2022-10-29T16:31:30.630Z,100818.59
2022-10-29T16:38:16.701Z,100811.69
2022-10-29T16:45:05.300Z,100809.16
2022-10-29T16:51:50.688Z,100806.31
2022-10-29T16:58:36.088Z,100813.50
2022-10-29T17:05:24.057Z,100791.63
2022-10-29T17:12:10.268Z,100812.13
2022-10-29T17:18:56.507Z,100819.31
2022-10-29T17:25:46.332Z,100808.22
2022-10-29T17:32:32.763Z,100809.81
2022-10-29T17:39:18.230Z,100815.13
2022-10-29T17:46:08.176Z,100773.78
2022-10-29T17:52:57.806Z,100818.84
2022-10-29T17:59:43.240Z,100783.97
2022-10-29T18:06:31.717Z,100816.81
2022-10-29T18:13:17.078Z,100825.19
2022-10-29T18:20:02.463Z,100833.38
2022-10-29T18:26:52.931Z,100757.69
2022-10-29T18:33:38.373Z,100835.44
2022-10-29T18:40:23.727Z,100845.31
2022-10-29T18:47:11.676Z,100829.81
2022-10-29T18:53:58.756Z,100840.28
2022-10-29T19:00:44.334Z,100841.19
2022-10-29T19:07:32.258Z,100817.69
2022-10-29T19:14:17.640Z,100826.03
2022-10-29T19:21:07.500Z,100834.34
2022-10-29T19:27:55.609Z,100820.88
2022-10-29T19:34:41.252Z,100837.19
2022-10-29T19:41:27.725Z,100827.94
2022-10-29T19:48:16.200Z,100823.75
2022-10-29T19:55:01.736Z,100831.81
2022-10-29T20:08:36.799Z,100828.41
2022-10-29T20:15:22.175Z,100827.88
2022-10-29T20:22:07.575Z,100831.81
2022-10-29T20:28:57.061Z,100797.66
2022-10-29T20:35:42.604Z,100813.13
2022-10-29T20:42:28.352Z,100811.53
2022-10-29T20:49:16.331Z,100814.69
2022-10-29T20:56:01.945Z,100824.50
2022-10-29T21:02:47.650Z,100815.00
2022-10-29T21:09:35.976Z,100813.19
2022-10-29T21:16:23.748Z,100828.59
2022-10-29T21:23:09.176Z,100830.03
2022-10-29T21:29:57.133Z,100829.47
2022-10-29T21:36:42.494Z,100831.25
2022-10-29T21:43:28.206Z,100832.44
2022-10-29T21:50:16.524Z,100815.88
2022-10-29T21:57:02.922Z,100809.66
2022-10-29T22:03:50.279Z,100822.09
2022-10-29T22:10:38.513Z,100812.63
2022-10-29T22:17:24.343Z,100828.53
2022-10-29T22:24:12.522Z,100765.81
2022-10-29T22:31:06.519Z,100823.38
2022-10-29T22:37:52.001Z,100814.50
2022-10-29T22:44:37.391Z,100813.22
2022-10-29T22:51:27.612Z,100799.25
2022-10-29T22:58:12.953Z,100809.56
2022-10-29T23:04:58.412Z,100807.47
2022-10-29T23:11:46.396Z,100805.88
2022-10-29T23:18:31.752Z,100807.97
2022-10-29T23:25:17.407Z,100798.25
2022-10-29T23:32:05.370Z,100808.59
2022-10-29T23:38:51.085Z,100809.28
2022-10-29T23:45:36.435Z,100819.34
2022-10-29T23:52:24.369Z,100810.22
2022-10-29T23:59:09.735Z,100809.34
